Monarch Pass, CO

12:55 AM MST on November 23, 2017 (GMT -0700)
Monarch Pass

Weather History for KMYP - March, 2013

Change the Weather History Date:

Saturday, March 30, 2013

  Actual Average (KALS) Record (KALS)
Temperature  
Mean Temperature 29 °F -  
Max Temperature 35 °F 51 °F 71 °F (2015)
Min Temperature 23 °F 17 °F -2 °F (1937)
Degree Days  
Heating Degree Days 36    
Moisture  
Dew Point 18 °F    
Average Humidity 66    
Maximum Humidity 93    
Minimum Humidity 41    
Precipitation  
Precipitation 0.00 in - - ()
Sea Level Pressure  
Sea Level Pressure 30.42 in    
Wind  
Wind Speed 25 mph (West)    
Max Wind Speed 40 mph    
Max Gust Speed 54 mph    
Averages and records for this station are not official NWS values.
T = Trace of Precipitation, MM = Missing Value Source: NWS Daily Summary

Daily Weather History Graph

Daily Weather History Graph

Search for Another Location

Airport or City:

Trip Planner

Search our weather history database for the weather conditions in past years. The results will help you decide how hot, cold, wet, or windy it might be!

Date:

Astronomy

Mar. 30, 2013 Rise Set
Actual Time 6:52 AM MDT 7:26 PM MDT
Civil Twilight 6:25 AM MDT 7:53 PM MDT
Nautical Twilight 5:54 AM MDT 8:24 PM MDT
Astronomical Twilight 5:22 AM MDT 8:56 PM MDT
Moon 11:32 PM MDT (3/30) 8:53 AM MDT (3/30)
Length of Visible Light 13h 27m
Length of Day
12h 34m
Waning Gibbous, 86% of the Moon is Illuminated
Mar 30
Waning Gibbous
Apr 2
Last Quarter
Apr 10
New
Apr 18
First Quarter
Apr 25
Full

Hourly Weather History & Observations

Time (MDT) Temp. Windchill Dew Point Humidity Pressure Visibility Wind Dir Wind Speed Gust Speed Precip Events Conditions
12:19 AM 28.4 °F 14.4 °F 19.4 °F 69% 30.46 in - West 23.0 mph 26.5 mph N/A   Scattered Clouds
12:39 AM 26.6 °F 13.1 °F 19.4 °F 74% 30.46 in - West 19.6 mph - N/A   Scattered Clouds
12:59 AM 26.6 °F 12.0 °F 19.4 °F 74% 30.46 in - West 23.0 mph - N/A   Clear
1:19 AM 26.6 °F 11.1 °F 19.4 °F 74% 30.45 in - West 26.5 mph - N/A   Clear
1:39 AM 26.6 °F 11.1 °F 19.4 °F 74% 30.45 in - West 26.5 mph - N/A   Clear
1:59 AM 26.6 °F - 19.4 °F 74% 30.44 in - North - - N/A   Clear
2:19 AM 26.6 °F 10.8 °F 19.4 °F 74% 30.44 in - West 27.6 mph - N/A   Clear
2:39 AM 26.6 °F 11.1 °F 19.4 °F 74% 30.44 in - West 26.5 mph - N/A   Clear
2:59 AM 26.6 °F 11.4 °F 19.4 °F 74% 30.44 in - West 25.3 mph - N/A   Clear
3:19 AM 26.6 °F 11.1 °F 19.4 °F 74% 30.43 in - West 26.5 mph - N/A   Clear
3:39 AM 24.8 °F 8.4 °F 21.2 °F 86% 30.43 in - West 27.6 mph - N/A   Unknown
3:59 AM 24.8 °F 8.4 °F 21.2 °F 86% 30.42 in - West 27.6 mph - N/A   Unknown
4:19 AM 24.8 °F 9.3 °F 21.2 °F 86% 30.42 in - West 24.2 mph 32.2 mph N/A   Unknown
4:39 AM 23.0 °F 6.3 °F 21.2 °F 93% 30.42 in - West 26.5 mph 29.9 mph N/A   Unknown
4:59 AM 23.0 °F 5.7 °F 21.2 °F 93% 30.41 in - West 28.8 mph - N/A   Unknown
5:19 AM 23.0 °F 6.0 °F 21.2 °F 93% 30.42 in - West 27.6 mph - N/A   Unknown
5:39 AM 23.0 °F 6.0 °F 21.2 °F 93% 30.42 in - West 27.6 mph - N/A   Unknown
5:59 AM 23.0 °F 6.0 °F 21.2 °F 93% 30.41 in - West 27.6 mph - N/A   Unknown
6:19 AM 23.0 °F 4.9 °F 21.2 °F 93% 30.41 in - West 32.2 mph - N/A   Unknown
6:39 AM 23.0 °F 5.4 °F 21.2 °F 93% 30.41 in - West 29.9 mph - N/A   Unknown
6:59 AM 23.0 °F 5.1 °F 21.2 °F 93% 30.41 in - West 31.1 mph - N/A   Unknown
7:19 AM 23.0 °F 5.4 °F 21.2 °F 93% 30.41 in - West 29.9 mph - N/A   Unknown
7:39 AM 23.0 °F 5.4 °F 21.2 °F 93% 30.42 in - West 29.9 mph - N/A   Unknown
7:59 AM 23.0 °F 5.1 °F 21.2 °F 93% 30.42 in - West 31.1 mph 36.8 mph N/A   Unknown
8:19 AM 23.0 °F 5.1 °F 21.2 °F 93% 30.42 in - West 31.1 mph 34.5 mph N/A   Unknown
8:39 AM 24.8 °F 8.1 °F 21.2 °F 86% 30.43 in - West 28.8 mph 34.5 mph N/A   Unknown
8:59 AM 24.8 °F 8.7 °F 21.2 °F 86% 30.43 in - West 26.5 mph - N/A   Unknown
9:19 AM 26.6 °F 11.4 °F 21.2 °F 80% 30.43 in - WSW 25.3 mph 33.4 mph N/A   Clear
9:39 AM 26.6 °F 11.7 °F 21.2 °F 80% 30.43 in - WSW 24.2 mph 33.4 mph N/A   Clear
9:59 AM 28.4 °F 15.4 °F 21.2 °F 74% 30.43 in - West 19.6 mph 29.9 mph N/A   Clear
10:19 AM 30.2 °F 17.4 °F 21.2 °F 69% 30.43 in - West 20.7 mph 28.8 mph N/A   Clear
10:39 AM 30.2 °F 15.9 °F 21.2 °F 69% 30.43 in - West 26.5 mph 32.2 mph N/A   Scattered Clouds
10:59 AM 32.0 °F 19.2 °F 21.2 °F 64% 30.43 in - West 23.0 mph 36.8 mph N/A   Scattered Clouds
11:19 AM 32.0 °F 18.6 °F 21.2 °F 64% 30.43 in - West 25.3 mph 36.8 mph N/A   Mostly Cloudy
11:39 AM 32.0 °F 17.6 °F 21.2 °F 64% 30.43 in - West 29.9 mph 36.8 mph N/A   Scattered Clouds
11:59 AM 32.0 °F 18.1 °F 19.4 °F 60% 30.43 in - West 27.6 mph 38.0 mph N/A   Scattered Clouds
12:19 PM 32.0 °F 19.2 °F 21.2 °F 64% 30.43 in - WSW 23.0 mph 39.1 mph N/A   Scattered Clouds
12:39 PM 32.0 °F 20.5 °F 19.4 °F 60% 30.42 in - WSW 18.4 mph 38.0 mph N/A   Scattered Clouds
12:59 PM 33.8 °F 19.2 °F 19.4 °F 56% 30.41 in - West 34.5 mph 44.9 mph N/A   Scattered Clouds
1:19 PM 33.8 °F 20.1 °F 17.6 °F 52% 30.41 in - West 29.9 mph 51.8 mph N/A   Clear
1:39 PM 33.8 °F 20.5 °F 17.6 °F 52% 30.41 in - West 27.6 mph 46.0 mph N/A   Clear
1:59 PM 35.6 °F 21.5 °F 17.6 °F 48% 30.41 in - West 35.7 mph 47.2 mph N/A   Scattered Clouds
2:19 PM 35.6 °F 22.7 °F 19.4 °F 52% 30.41 in - West 28.8 mph 42.6 mph N/A   Mostly Cloudy
2:39 PM 35.6 °F 22.1 °F 17.6 °F 48% 30.40 in - West 32.2 mph 42.6 mph N/A   Overcast
2:59 PM 35.6 °F 21.5 °F 15.8 °F 44% 30.40 in - West 35.7 mph 48.3 mph N/A   Overcast
3:19 PM 35.6 °F 20.8 °F 14.0 °F 41% 30.38 in - West 40.3 mph 52.9 mph N/A   Overcast
3:39 PM 35.6 °F 21.5 °F 14.0 °F 41% 30.38 in - West 35.7 mph 50.6 mph N/A   Overcast
3:59 PM 35.6 °F 22.3 °F 15.8 °F 44% 30.38 in - WSW 31.1 mph 49.5 mph N/A   Overcast
4:19 PM 35.6 °F 21.5 °F 14.0 °F 41% 30.38 in - West 35.7 mph 54.1 mph N/A   Scattered Clouds
4:39 PM 33.8 °F 21.0 °F 15.8 °F 48% 30.39 in - West 25.3 mph 44.9 mph N/A   Mostly Cloudy
4:59 PM 35.6 °F 22.5 °F 14.0 °F 41% 30.39 in - West 29.9 mph 44.9 mph N/A   Scattered Clouds
5:19 PM 35.6 °F 23.0 °F 15.8 °F 44% 30.38 in - West 27.6 mph 38.0 mph N/A   Scattered Clouds
5:39 PM 35.6 °F 22.1 °F 17.6 °F 48% 30.37 in - West 32.2 mph 40.3 mph N/A   Scattered Clouds
5:59 PM 33.8 °F 19.4 °F 17.6 °F 52% 30.38 in - West 33.4 mph 41.4 mph N/A   Scattered Clouds
6:19 PM 33.8 °F 21.6 °F 15.8 °F 48% 30.38 in - West 23.0 mph 39.1 mph N/A   Overcast
6:39 PM 32.0 °F 20.5 °F 17.6 °F 55% 30.39 in - West 18.4 mph 26.5 mph N/A   Mostly Cloudy
6:59 PM 32.0 °F 19.8 °F 15.8 °F 51% 30.39 in - WNW 20.7 mph 29.9 mph N/A   Overcast
7:19 PM 32.0 °F 18.9 °F 15.8 °F 51% 30.40 in - WNW 24.2 mph 36.8 mph N/A   Overcast
7:39 PM 30.2 °F 18.1 °F 15.8 °F 55% 30.40 in - WNW 18.4 mph 31.1 mph N/A   Overcast
7:59 PM 30.2 °F 19.3 °F 15.8 °F 55% 30.41 in - WNW 15.0 mph 29.9 mph N/A   Clear
8:19 PM 30.2 °F 20.8 °F 15.8 °F 55% 30.41 in - WNW 11.5 mph 16.1 mph N/A   Clear
8:39 PM 30.2 °F 20.8 °F 15.8 °F 55% 30.42 in - WNW 11.5 mph - N/A   Scattered Clouds
8:59 PM 30.2 °F 20.2 °F 15.8 °F 55% 30.43 in - West 12.7 mph - N/A   Mostly Cloudy
9:19 PM 30.2 °F 18.9 °F 15.8 °F 55% 30.43 in - West 16.1 mph - N/A   Overcast
9:39 PM 30.2 °F 18.9 °F 15.8 °F 55% 30.44 in - West 16.1 mph - N/A   Overcast
9:59 PM 28.4 °F 21.2 °F 15.8 °F 59% 30.45 in - NW 6.9 mph 10.4 mph N/A   Overcast
10:19 PM 28.4 °F 18.0 °F 14.0 °F 55% 30.44 in - NW 12.7 mph - N/A   Overcast
10:39 PM 28.4 °F 20.4 °F 15.8 °F 59% 30.45 in - ENE 8.1 mph - N/A   Scattered Clouds
10:59 PM 28.4 °F 22.2 °F 15.8 °F 59% 30.44 in - NNE 5.8 mph - N/A   Clear
11:19 PM 28.4 °F 24.6 °F 14.0 °F 55% 30.43 in - West 3.5 mph - N/A   Clear
11:39 PM 26.6 °F 18.2 °F 15.8 °F 64% 30.43 in - WNW 8.1 mph - N/A   Clear
11:59 PM 26.6 °F 19.1 °F 15.8 °F 64% 30.43 in - WNW 6.9 mph - N/A   Clear